Time;durP1;ratioP1;P1;durP2;ratioP2;P2;SDS_P1;SDS_P2;PMS_P1;PMS_P2;Temp;Humidity;BMP_temperature;BMP_pressure;BME280_temperature;BME280_humidity;BME280_pressure;Samples;Min_cycle;Max_cycle;Signal;HPM_P1;HPM_P2
2021/07/14 00:01:38;;;;;;;8.77;6.28;;;;;;;-140.79;100.00;63287.88;4992238;28;20025;-77
2021/07/14 00:04:03;;;;;;;8.95;6.60;;;;;;;-140.79;100.00;63287.88;4991942;28;20046;-77
2021/07/14 00:06:29;;;;;;;8.23;6.80;;;;;;;-140.79;100.00;63287.88;4992195;28;20169;-77
2021/07/14 00:08:54;;;;;;;10.85;6.60;;;;;;;-140.79;100.00;63287.88;4991503;28;20030;-77
2021/07/14 00:11:20;;;;;;;7.38;6.22;;;;;;;-140.79;100.00;63287.88;4991728;28;20124;-78
2021/07/14 00:14:01;;;;;;;8.02;6.63;;;;;;;-140.79;100.00;63287.88;4992305;28;20022;-78
2021/07/14 00:24:49;;;;;;;8.20;6.65;;;;;;;-140.79;100.00;63287.88;4983155;28;20418;-77
2021/07/14 00:27:15;;;;;;;6.68;6.03;;;;;;;-140.79;100.00;63287.88;4990782;28;20037;-77
2021/07/14 00:29:49;;;;;;;8.32;6.65;;;;;;;-140.79;100.00;63287.88;4976484;28;20386;-77
2021/07/14 00:32:15;;;;;;;7.78;6.65;;;;;;;-140.79;100.00;63287.88;4973748;28;20045;-77
2021/07/14 00:34:40;;;;;;;9.05;6.50;;;;;;;-140.79;100.00;63287.88;4991124;28;20026;-77
2021/07/14 00:37:06;;;;;;;7.45;6.65;;;;;;;-140.79;100.00;63287.88;4991163;28;20033;-77
2021/07/14 00:39:31;;;;;;;8.65;6.65;;;;;;;-140.79;100.00;63287.88;4990536;28;20030;-77
2021/07/14 00:41:57;;;;;;;8.27;6.57;;;;;;;-140.79;100.00;63287.88;4990793;28;20030;-78
2021/07/14 00:44:22;;;;;;;9.20;7.10;;;;;;;-140.79;100.00;63287.88;4990892;28;20025;-77
2021/07/14 00:46:48;;;;;;;9.35;6.43;;;;;;;-140.79;100.00;63287.88;4991588;28;20014;-77
2021/07/14 00:49:13;;;;;;;8.45;6.90;;;;;;;-140.79;100.00;63287.88;4990754;28;20018;-77
2021/07/14 00:51:39;;;;;;;9.00;6.60;;;;;;;-140.79;100.00;63287.88;4973485;28;20034;-77
2021/07/14 00:54:04;;;;;;;9.07;7.05;;;;;;;-140.79;100.00;63287.88;4974634;28;20465;-77
2021/07/14 00:56:30;;;;;;;8.00;6.22;;;;;;;-140.79;100.00;63287.88;4975783;28;20022;-76
2021/07/14 00:58:57;;;;;;;7.88;6.95;;;;;;;-140.79;100.00;63287.88;4990564;28;20018;-77
2021/07/14 01:01:22;;;;;;;8.23;7.38;;;;;;;-140.79;100.00;63287.88;4990855;28;20069;-77
2021/07/14 01:04:05;;;;;;;7.47;6.68;;;;;;;-140.79;100.00;63287.88;4991216;28;20112;-77
2021/07/14 01:06:55;;;;;;;7.88;7.07;;;;;;;-140.79;100.00;63287.88;4989478;28;20034;-77
2021/07/14 01:09:33;;;;;;;10.40;7.55;;;;;;;-140.79;100.00;63287.88;4989963;28;20027;-77
2021/07/14 01:12:10;;;;;;;7.90;7.07;;;;;;;-140.79;100.00;63287.88;4974126;28;20034;-77
2021/07/14 01:15:04;;;;;;;8.52;7.10;;;;;;;-140.79;100.00;63287.88;4991310;28;20114;-77
2021/07/14 01:17:31;;;;;;;12.15;6.75;;;;;;;-140.79;100.00;63287.88;4985475;28;20460;-77
2021/07/14 01:20:05;;;;;;;9.43;7.03;;;;;;;-140.79;100.00;63287.88;4973584;28;20030;-77
2021/07/14 01:22:40;;;;;;;8.45;7.32;;;;;;;-140.79;100.00;63287.88;4974260;28;20101;-77
2021/07/14 01:25:08;;;;;;;8.50;6.72;;;;;;;-140.79;100.00;63287.88;4991461;28;20049;-77
2021/07/14 01:27:35;;;;;;;8.45;7.07;;;;;;;-140.79;100.00;63287.88;4991132;28;20034;-77
2021/07/14 01:30:02;;;;;;;7.82;6.88;;;;;;;-140.79;100.00;63287.88;4973345;28;20085;-77
2021/07/14 01:32:29;;;;;;;8.35;7.28;;;;;;;-140.79;100.00;63287.88;4989083;28;20117;-77
2021/07/14 01:34:58;;;;;;;10.38;7.00;;;;;;;-140.79;100.00;63287.88;4973279;28;20036;-77
2021/07/14 01:37:23;;;;;;;8.38;7.50;;;;;;;-140.79;100.00;63287.88;4990582;28;20030;-77
2021/07/14 01:39:50;;;;;;;8.40;7.07;;;;;;;-140.79;100.00;63287.88;4973127;28;20084;-77
2021/07/14 01:42:16;;;;;;;9.25;7.63;;;;;;;-140.79;100.00;63287.88;4973711;28;20058;-76
2021/07/14 01:44:41;;;;;;;7.43;6.63;;;;;;;-140.79;100.00;63287.88;4972844;28;20044;-77
2021/07/14 01:47:06;;;;;;;8.60;6.90;;;;;;;-140.79;100.00;63287.88;4972358;28;20057;-77
2021/07/14 01:49:34;;;;;;;9.55;6.88;;;;;;;-140.79;100.00;63287.88;4990103;28;20444;-78
2021/07/14 01:52:08;;;;;;;8.68;6.47;;;;;;;-140.79;100.00;63287.88;4973795;28;20030;-76
2021/07/14 01:54:33;;;;;;;10.15;7.05;;;;;;;-140.79;100.00;63287.88;4974071;28;20023;-77
2021/07/14 01:56:58;;;;;;;8.23;7.25;;;;;;;-140.79;100.00;63287.88;4989554;28;20026;-77
2021/07/14 01:59:25;;;;;;;8.13;7.32;;;;;;;-140.79;100.00;63287.88;4961939;28;20015;-77
2021/07/14 02:01:50;;;;;;;9.63;7.32;;;;;;;-140.79;100.00;63287.88;4969517;28;20553;-77
2021/07/14 02:04:32;;;;;;;9.38;6.72;;;;;;;-140.79;100.00;63287.88;4965606;28;20142;-77
2021/07/14 02:07:14;;;;;;;8.55;7.47;;;;;;;-140.79;100.00;63287.88;4950713;28;20035;-77
2021/07/14 02:09:40;;;;;;;8.05;6.90;;;;;;;-140.79;100.00;63287.88;4950847;28;20458;-77
2021/07/14 02:12:08;;;;;;;9.25;6.95;;;;;;;-140.79;100.00;63287.88;4969691;28;20030;-76
2021/07/14 02:14:45;;;;;;;9.50;7.75;;;;;;;-140.79;100.00;63287.88;4968477;28;20490;-76
2021/07/14 02:17:13;;;;;;;8.27;7.45;;;;;;;-140.79;100.00;63287.88;4951890;28;20035;-77
2021/07/14 02:19:38;;;;;;;8.43;7.55;;;;;;;-140.79;100.00;63287.88;4951261;28;20364;-76
2021/07/14 02:22:04;;;;;;;9.93;7.40;;;;;;;-140.79;100.00;63287.88;4966061;28;20030;-77
2021/07/14 02:24:30;;;;;;;9.05;7.75;;;;;;;-140.79;100.00;63287.88;4951683;28;20027;-76
2021/07/14 02:26:57;;;;;;;10.77;7.63;;;;;;;-140.79;100.00;63287.88;4951184;28;20035;-77
2021/07/14 02:29:23;;;;;;;11.05;8.15;;;;;;;-140.79;100.00;63287.88;4950274;28;20050;-77
2021/07/14 02:31:48;;;;;;;11.05;8.50;;;;;;;-140.79;100.00;63287.88;4951315;28;20023;-77
2021/07/14 02:34:14;;;;;;;11.60;8.77;;;;;;;-140.79;100.00;63287.88;4951003;28;20027;-76
2021/07/14 02:36:39;;;;;;;10.18;8.18;;;;;;;-140.79;100.00;63287.88;4950410;28;20401;-76
2021/07/14 02:39:05;;;;;;;11.02;7.97;;;;;;;-140.79;100.00;63287.88;4965525;28;20399;-76
2021/07/14 02:41:41;;;;;;;10.07;8.48;;;;;;;-140.79;100.00;63287.88;4965679;28;20059;-76
2021/07/14 02:44:08;;;;;;;10.65;8.52;;;;;;;-140.79;100.00;63287.88;4948940;29;20799;-76
2021/07/14 02:46:41;;;;;;;9.45;8.05;;;;;;;-140.79;100.00;63287.88;4965500;28;20031;-76
2021/07/14 02:49:07;;;;;;;9.85;8.73;;;;;;;-140.79;100.00;63287.88;4954648;28;20035;-76
2021/07/14 02:51:34;;;;;;;10.27;9.27;;;;;;;-140.79;100.00;63287.88;4972444;28;20172;-76
2021/07/14 02:54:01;;;;;;;10.85;9.00;;;;;;;-140.79;100.00;63287.88;4987752;28;20038;-77
2021/07/14 02:56:28;;;;;;;11.13;9.02;;;;;;;-140.79;100.00;63287.88;4988769;28;20113;-77
2021/07/14 02:58:55;;;;;;;10.38;8.68;;;;;;;-140.79;100.00;63287.88;4970571;28;20571;-76
2021/07/14 03:01:20;;;;;;;11.45;9.00;;;;;;;-140.79;100.00;63287.88;4984368;28;20026;-76
2021/07/14 03:03:47;;;;;;;11.75;8.80;;;;;;;-140.79;100.00;63287.88;4984498;28;20050;-77
2021/07/14 03:06:13;;;;;;;11.57;9.20;;;;;;;-140.79;100.00;63287.88;4984351;28;20067;-76
2021/07/14 03:08:38;;;;;;;10.65;8.98;;;;;;;-140.79;100.00;63287.88;4969132;28;20031;-77
2021/07/14 03:11:04;;;;;;;11.10;9.55;;;;;;;-140.79;100.00;63287.88;4985347;28;20097;-77
2021/07/14 03:13:30;;;;;;;12.82;9.30;;;;;;;-140.79;100.00;63287.88;4985032;28;20813;-77
2021/07/14 03:15:56;;;;;;;11.02;9.38;;;;;;;-140.79;100.00;63287.88;4984705;28;20035;-76
2021/07/14 03:18:23;;;;;;;12.75;9.40;;;;;;;-140.79;100.00;63287.88;4984538;28;20045;-77
2021/07/14 03:20:49;;;;;;;13.15;9.20;;;;;;;-140.79;100.00;63287.88;4983303;28;20109;-76
2021/07/14 03:23:15;;;;;;;12.98;9.43;;;;;;;-140.79;100.00;63287.88;4967778;28;20027;-76
2021/07/14 03:25:41;;;;;;;11.02;9.73;;;;;;;-140.79;100.00;63287.88;4960432;28;20049;-76
2021/07/14 03:28:07;;;;;;;10.95;9.23;;;;;;;-140.79;100.00;63287.88;4948978;29;20586;-78
2021/07/14 03:30:32;;;;;;;11.13;9.93;;;;;;;-140.79;100.00;63287.88;4976343;28;20022;-77
2021/07/14 03:32:58;;;;;;;10.82;9.73;;;;;;;-140.79;100.00;63287.88;4971753;28;20030;-76
2021/07/14 03:35:23;;;;;;;12.45;10.48;;;;;;;-140.79;100.00;63287.88;4971725;28;20036;-76
2021/07/14 03:37:49;;;;;;;13.00;10.10;;;;;;;-140.79;100.00;63287.88;4987533;28;20080;-76
2021/07/14 03:40:14;;;;;;;10.57;9.48;;;;;;;-140.79;100.00;63287.88;4987378;28;20022;-77
2021/07/14 03:42:40;;;;;;;13.05;9.98;;;;;;;-140.79;100.00;63287.88;4987003;28;20100;-76
2021/07/14 03:45:06;;;;;;;12.50;9.05;;;;;;;-140.79;100.00;63287.88;4987752;28;20124;-77
2021/07/14 03:47:32;;;;;;;11.30;10.00;;;;;;;-140.79;100.00;63287.88;4971592;28;20572;-76
2021/07/14 03:49:57;;;;;;;12.13;9.73;;;;;;;-140.79;100.00;63287.88;4971135;28;20036;-77
2021/07/14 03:52:23;;;;;;;10.90;8.98;;;;;;;-140.79;100.00;63287.88;4971108;28;20110;-77
2021/07/14 03:54:48;;;;;;;10.77;9.50;;;;;;;-140.79;100.00;63287.88;4971345;28;20027;-76
2021/07/14 03:57:14;;;;;;;11.90;9.63;;;;;;;-140.79;100.00;63287.88;4989110;28;20022;-76
2021/07/14 03:59:40;;;;;;;10.90;9.13;;;;;;;-140.79;100.00;63287.88;4987239;28;20026;-77
2021/07/14 04:02:07;;;;;;;14.18;9.82;;;;;;;-140.79;100.00;63287.88;4987516;28;20031;-77
2021/07/14 04:04:32;;;;;;;14.13;9.90;;;;;;;-140.79;100.00;63287.88;4977008;28;20572;-77
2021/07/14 04:07:00;;;;;;;11.32;9.23;;;;;;;-140.79;100.00;63287.88;4984349;28;20038;-77
2021/07/14 04:09:26;;;;;;;12.48;9.90;;;;;;;-140.79;100.00;63287.88;4969130;28;20031;-77
2021/07/14 04:11:59;;;;;;;12.38;9.65;;;;;;;-140.79;100.00;63287.88;4969545;28;20121;-77
2021/07/14 04:14:25;;;;;;;13.25;9.70;;;;;;;-140.79;100.00;63287.88;4969372;28;20172;-77
2021/07/14 04:16:52;;;;;;;12.68;8.80;;;;;;;-140.79;100.00;63287.88;4968955;28;20050;-77
2021/07/14 04:19:17;;;;;;;10.63;9.35;;;;;;;-140.79;100.00;63287.88;4983689;28;20031;-77
2021/07/14 04:21:43;;;;;;;12.48;9.18;;;;;;;-140.79;100.00;63287.88;4969171;28;20094;-76
2021/07/14 04:24:08;;;;;;;13.00;9.88;;;;;;;-140.79;100.00;63287.88;4969127;28;20031;-77
2021/07/14 04:26:34;;;;;;;11.20;9.40;;;;;;;-140.79;100.00;63287.88;4969571;28;20425;-77
2021/07/14 04:28:59;;;;;;;16.85;10.80;;;;;;;-140.79;100.00;63287.88;4968733;28;20023;-77
2021/07/14 04:31:25;;;;;;;10.05;9.05;;;;;;;-140.79;100.00;63287.88;4969432;28;20058;-77
2021/07/14 04:33:50;;;;;;;11.88;9.30;;;;;;;-140.79;100.00;63287.88;4970875;28;20461;-77
2021/07/14 04:36:16;;;;;;;11.68;9.50;;;;;;;-140.79;100.00;63287.88;4987822;28;20093;-78
2021/07/14 04:38:41;;;;;;;15.77;9.73;;;;;;;-140.79;100.00;63287.88;4970767;28;20085;-77
2021/07/14 04:41:07;;;;;;;11.50;9.70;;;;;;;-140.79;100.00;63287.88;4973089;28;20034;-77
2021/07/14 04:43:32;;;;;;;11.43;9.30;;;;;;;-140.79;100.00;63287.88;4972243;28;20031;-77
2021/07/14 04:46:00;;;;;;;15.18;10.05;;;;;;;-140.79;100.00;63287.88;4972347;28;20527;-77
2021/07/14 04:48:26;;;;;;;22.40;11.23;;;;;;;-140.79;100.00;63287.88;4972016;28;20027;-77
2021/07/14 04:50:51;;;;;;;13.25;10.07;;;;;;;-140.79;100.00;63287.88;4971412;28;20035;-76
2021/07/14 04:53:17;;;;;;;14.10;10.07;;;;;;;-140.79;100.00;63287.88;4972042;28;20038;-77
2021/07/14 04:55:43;;;;;;;13.77;9.77;;;;;;;-140.79;100.00;63287.88;4953686;28;20042;-77
2021/07/14 04:58:08;;;;;;;16.02;9.63;;;;;;;-140.79;100.00;63287.88;4951226;28;20255;-76
2021/07/14 05:00:33;;;;;;;11.70;9.55;;;;;;;-140.79;100.00;63287.88;4952285;28;20030;-77
2021/07/14 05:02:59;;;;;;;16.02;10.40;;;;;;;-140.79;100.00;63287.88;4959886;28;20047;-79
2021/07/14 05:05:24;;;;;;;13.57;10.57;;;;;;;-140.79;100.00;63287.88;4957928;28;20547;-80
2021/07/14 05:07:50;;;;;;;18.80;10.85;;;;;;;-140.79;100.00;63287.88;4989498;28;20543;-80
2021/07/14 05:10:20;;;;;;;11.60;9.95;;;;;;;-140.79;100.00;63287.88;4970885;28;20085;-77
2021/07/14 05:12:47;;;;;;;13.10;9.70;;;;;;;-140.79;100.00;63287.88;4978096;28;20162;-77
2021/07/14 05:15:13;;;;;;;13.48;9.43;;;;;;;-140.79;100.00;63287.88;4987388;28;20062;-78
2021/07/14 05:17:38;;;;;;;11.88;9.80;;;;;;;-140.79;100.00;63287.88;4980968;28;20114;-79
2021/07/14 05:20:05;;;;;;;14.40;10.45;;;;;;;-140.79;100.00;63287.88;4987824;28;20030;-78
2021/07/14 05:22:31;;;;;;;14.07;10.48;;;;;;;-140.79;100.00;63287.88;4978723;28;20035;-82
2021/07/14 05:24:56;;;;;;;14.07;9.65;;;;;;;-140.79;100.00;63287.88;4985204;28;20558;-80
2021/07/14 05:27:22;;;;;;;13.02;10.15;;;;;;;-140.79;100.00;63287.88;4974402;28;20162;-77
2021/07/14 05:29:47;;;;;;;15.35;10.55;;;;;;;-140.79;100.00;63287.88;4984949;28;20033;-77
2021/07/14 05:32:13;;;;;;;13.50;10.02;;;;;;;-140.79;100.00;63287.88;4980082;28;20397;-77
2021/07/14 05:34:38;;;;;;;16.25;9.85;;;;;;;-140.79;100.00;63287.88;4983322;28;20285;-77
2021/07/14 05:37:03;;;;;;;16.42;11.18;;;;;;;-140.79;100.00;63287.88;4973676;28;20054;-82
2021/07/14 05:39:29;;;;;;;15.82;9.68;;;;;;;-140.79;100.00;63287.88;4983722;28;20022;-80
2021/07/14 05:41:54;;;;;;;11.60;10.07;;;;;;;-140.79;100.00;63287.88;4977451;28;20026;-79
2021/07/14 05:44:20;;;;;;;20.60;10.80;;;;;;;-140.79;100.00;63287.88;4991225;28;20034;-77
2021/07/14 05:46:45;;;;;;;19.55;10.68;;;;;;;-140.79;100.00;63287.88;4980077;28;20026;-83
2021/07/14 05:49:11;;;;;;;15.55;9.75;;;;;;;-140.79;100.00;63287.88;4992872;28;20166;-81
2021/07/14 05:51:36;;;;;;;17.50;12.07;;;;;;;-140.79;100.00;63287.88;4980191;28;20027;-79
2021/07/14 05:54:02;;;;;;;17.48;10.35;;;;;;;-140.79;100.00;63287.88;4990514;28;20037;-81
2021/07/14 05:56:27;;;;;;;15.05;10.50;;;;;;;-140.79;100.00;63287.88;4974293;28;20030;-80
2021/07/14 05:58:53;;;;;;;19.42;10.68;;;;;;;-140.79;100.00;63287.88;4991809;28;20027;-82
2021/07/14 06:01:19;;;;;;;21.13;11.35;;;;;;;-140.79;100.00;63287.88;4989286;28;20085;-81
2021/07/14 06:03:46;;;;;;;22.83;10.30;;;;;;;-140.79;100.00;63287.88;4974770;28;20089;-79
2021/07/14 06:06:12;;;;;;;17.65;10.13;;;;;;;-140.79;100.00;63287.88;4985134;28;20089;-83
2021/07/14 06:08:37;;;;;;;16.25;10.35;;;;;;;-140.79;100.00;63287.88;4992404;28;20022;-82
2021/07/14 06:11:03;;;;;;;17.42;10.57;;;;;;;-140.79;100.00;63287.88;4988652;28;20030;-82
2021/07/14 06:13:28;;;;;;;22.52;11.07;;;;;;;-140.79;100.00;63287.88;4993162;28;20034;-84
2021/07/14 06:15:54;;;;;;;18.75;10.45;;;;;;;-140.79;100.00;63287.88;4986305;28;20033;-82
2021/07/14 06:18:19;;;;;;;14.27;9.88;;;;;;;-140.79;100.00;63287.88;4992092;28;20030;-82
2021/07/14 06:20:45;;;;;;;15.68;10.20;;;;;;;-140.79;100.00;63287.88;4986303;28;20115;-77
2021/07/14 06:23:10;;;;;;;13.55;9.63;;;;;;;-140.79;100.00;63287.88;4988324;28;20022;-76
2021/07/14 06:25:35;;;;;;;16.65;10.13;;;;;;;-140.79;100.00;63287.88;4985373;28;20085;-77
2021/07/14 06:28:02;;;;;;;14.00;9.52;;;;;;;-140.79;100.00;63287.88;4988644;28;20768;-77
2021/07/14 06:30:28;;;;;;;13.73;9.20;;;;;;;-140.79;100.00;63287.88;4983469;28;20022;-78
2021/07/14 06:32:53;;;;;;;13.20;9.20;;;;;;;-140.79;100.00;63287.88;4969078;28;20045;-78
2021/07/14 06:35:19;;;;;;;16.70;10.00;;;;;;;-140.79;100.00;63287.88;4987449;28;20033;-78
2021/07/14 06:37:45;;;;;;;12.98;9.13;;;;;;;-140.79;100.00;63287.88;4991192;28;20425;-77
2021/07/14 06:40:11;;;;;;;11.13;8.68;;;;;;;-140.79;100.00;63287.88;4990222;28;20025;-78
2021/07/14 06:42:37;;;;;;;13.98;9.02;;;;;;;-140.79;100.00;63287.88;4984566;28;20530;-78
2021/07/14 06:45:04;;;;;;;12.32;8.68;;;;;;;-140.79;100.00;63287.88;4988294;28;20026;-79
2021/07/14 06:47:30;;;;;;;13.10;9.23;;;;;;;-140.79;100.00;63287.88;4980320;28;20061;-77
2021/07/14 06:49:55;;;;;;;11.00;8.55;;;;;;;-140.79;100.00;63287.88;4986487;28;20108;-79
2021/07/14 06:52:21;;;;;;;9.80;8.07;;;;;;;-140.79;100.00;63287.88;4975331;28;20110;-78
2021/07/14 06:54:47;;;;;;;10.73;8.85;;;;;;;-140.79;100.00;63287.88;4987974;28;20035;-78
2021/07/14 06:57:12;;;;;;;12.40;9.18;;;;;;;-140.79;100.00;63287.88;4985416;28;20045;-78
2021/07/14 06:59:37;;;;;;;10.15;7.82;;;;;;;-140.79;100.00;63287.88;4988499;28;20512;-78
2021/07/14 07:02:04;;;;;;;10.75;8.40;;;;;;;-140.79;100.00;63287.88;4982310;28;20030;-78
2021/07/14 07:04:30;;;;;;;11.90;8.23;;;;;;;-140.79;100.00;63287.88;4988842;28;20050;-78
2021/07/14 07:06:56;;;;;;;9.68;8.20;;;;;;;-140.79;100.00;63287.88;4984374;28;20509;-78
2021/07/14 07:09:21;;;;;;;11.75;8.27;;;;;;;-140.79;100.00;63287.88;4988718;28;20065;-77
2021/07/14 07:11:47;;;;;;;9.50;7.80;;;;;;;-140.79;100.00;63287.88;4982574;28;20505;-78
2021/07/14 07:14:13;;;;;;;9.23;7.50;;;;;;;-140.79;100.00;63287.88;4989055;28;20035;-77
2021/07/14 07:16:38;;;;;;;9.73;7.55;;;;;;;-140.79;100.00;63287.88;4983310;28;20033;-77
2021/07/14 07:19:13;;;;;;;11.23;7.43;;;;;;;-140.79;100.00;63287.88;4989293;28;20106;-76
2021/07/14 07:21:38;;;;;;;10.60;8.32;;;;;;;-140.79;100.00;63287.88;4971606;28;20047;-77
2021/07/14 07:24:04;;;;;;;9.18;7.75;;;;;;;-140.79;100.00;63287.88;4988714;28;20110;-76
2021/07/14 07:26:29;;;;;;;9.82;7.10;;;;;;;-140.79;100.00;63287.88;4983916;28;20034;-78
2021/07/14 07:29:00;;;;;;;9.75;7.45;;;;;;;-140.79;100.00;63287.88;4989404;28;20030;-77
2021/07/14 07:31:26;;;;;;;8.70;7.50;;;;;;;-140.79;100.00;63287.88;4980155;28;20084;-78
2021/07/14 07:33:51;;;;;;;10.43;7.70;;;;;;;-140.79;100.00;63287.88;4989098;28;20038;-78
2021/07/14 07:36:17;;;;;;;8.90;7.63;;;;;;;-140.79;100.00;63287.88;4983370;28;20088;-78
2021/07/14 07:38:42;;;;;;;8.43;6.90;;;;;;;-140.79;100.00;63287.88;4991012;28;20045;-78
2021/07/14 07:41:08;;;;;;;10.65;7.55;;;;;;;-140.79;100.00;63287.88;4984649;28;20509;-77
2021/07/14 07:43:34;;;;;;;10.60;7.10;;;;;;;-140.79;100.00;63287.88;4974748;28;20022;-78
2021/07/14 07:45:59;;;;;;;8.73;6.97;;;;;;;-140.79;100.00;63287.88;4990139;28;20424;-79
2021/07/14 07:48:25;;;;;;;8.50;7.05;;;;;;;-140.79;100.00;63287.88;4989390;28;20512;-79
2021/07/14 07:50:50;;;;;;;8.73;7.28;;;;;;;-140.79;100.00;63287.88;4989118;28;20176;-78
2021/07/14 07:53:17;;;;;;;9.75;6.78;;;;;;;-140.79;100.00;63287.88;4989257;28;20516;-77
2021/07/14 07:55:43;;;;;;;8.82;7.15;;;;;;;-140.79;100.00;63287.88;4988304;28;20112;-78
2021/07/14 07:58:09;;;;;;;9.27;7.00;;;;;;;-140.79;100.00;63287.88;4990565;28;20497;-77
2021/07/14 08:00:34;;;;;;;7.57;6.78;;;;;;;-140.79;100.00;63287.88;4992744;28;20030;-78
2021/07/14 08:03:00;;;;;;;7.63;6.82;;;;;;;-140.79;100.00;63287.88;4991504;28;20555;-78
2021/07/14 08:05:26;;;;;;;8.68;6.65;;;;;;;-140.79;100.00;63287.88;4988998;28;20022;-78
2021/07/14 08:07:53;;;;;;;8.95;6.93;;;;;;;-140.79;100.00;63287.88;4971972;28;20037;-78
2021/07/14 08:10:18;;;;;;;7.72;6.78;;;;;;;-140.79;100.00;63287.88;4994088;28;20034;-78
2021/07/14 08:12:44;;;;;;;8.55;6.85;;;;;;;-140.79;100.00;63287.88;4992690;28;20026;-78
2021/07/14 08:15:10;;;;;;;7.10;6.40;;;;;;;-140.79;100.00;63287.88;4992224;28;20037;-78
2021/07/14 08:17:35;;;;;;;7.72;6.68;;;;;;;-140.79;100.00;63287.88;4992504;28;20034;-78
2021/07/14 08:20:00;;;;;;;10.20;6.82;;;;;;;-140.79;100.00;63287.88;4975320;28;20029;-77
2021/07/14 08:22:26;;;;;;;7.32;6.50;;;;;;;-140.79;100.00;63287.88;4976766;28;20420;-79
2021/07/14 08:24:51;;;;;;;7.78;6.63;;;;;;;-140.79;100.00;63287.88;4993753;28;20438;-77
2021/07/14 08:27:17;;;;;;;7.78;6.53;;;;;;;-140.79;100.00;63287.88;4992204;28;20030;-78
2021/07/14 08:29:43;;;;;;;7.63;6.20;;;;;;;-140.79;100.00;63287.88;4975706;28;20022;-78
2021/07/14 08:32:09;;;;;;;7.00;6.30;;;;;;;-140.79;100.00;63287.88;4992608;28;20485;-78
2021/07/14 08:34:34;;;;;;;8.60;6.78;;;;;;;-140.79;100.00;63287.88;4992830;28;20037;-77
2021/07/14 08:37:00;;;;;;;7.57;6.78;;;;;;;-140.79;100.00;63287.88;4992735;28;20065;-77
2021/07/14 08:39:26;;;;;;;7.60;6.47;;;;;;;-140.79;100.00;63287.88;4992100;28;20030;-77
2021/07/14 08:41:51;;;;;;;8.27;6.63;;;;;;;-140.79;100.00;63287.88;4992868;28;20093;-77
2021/07/14 08:44:17;;;;;;;8.10;7.00;;;;;;;-140.79;100.00;63287.88;4976538;28;20034;-73
2021/07/14 08:46:42;;;;;;;6.85;6.15;;;;;;;-140.79;100.00;63287.88;4991478;28;20038;-75
2021/07/14 08:49:08;;;;;;;7.07;6.25;;;;;;;-140.79;100.00;63287.88;4991087;28;20043;-75
2021/07/14 08:51:34;;;;;;;7.57;6.45;;;;;;;-140.79;100.00;63287.88;4993028;28;20101;-78
2021/07/14 08:53:59;;;;;;;8.80;5.97;;;;;;;-140.79;100.00;63287.88;4990881;28;20038;-79
2021/07/14 08:56:25;;;;;;;7.75;6.20;;;;;;;-140.79;100.00;63287.88;4991669;28;20440;-77
2021/07/14 08:58:50;;;;;;;7.55;6.25;;;;;;;-140.79;100.00;63287.88;4986677;28;22021;-80
2021/07/14 09:01:16;;;;;;;6.82;6.15;;;;;;;-140.79;100.00;63287.88;4976861;28;20536;-79
2021/07/14 09:03:41;;;;;;;8.30;6.63;;;;;;;-140.79;100.00;63287.88;4979868;28;20061;-79
2021/07/14 09:06:08;;;;;;;8.63;6.50;;;;;;;-140.79;100.00;63287.88;4973321;28;20034;-79
2021/07/14 09:08:33;;;;;;;7.45;6.28;;;;;;;-140.79;100.00;63287.88;4966105;28;20465;-78
2021/07/14 09:10:59;;;;;;;6.97;6.15;;;;;;;-140.79;100.00;63287.88;4991495;28;20038;-83
2021/07/14 09:13:32;;;;;;;7.00;6.30;;;;;;;-140.79;100.00;63287.88;4991940;28;20022;-84
2021/07/14 09:15:57;;;;;;;9.73;6.30;;;;;;;-140.79;100.00;63287.88;4994137;28;20095;-82
2021/07/14 09:18:25;;;;;;;7.32;5.72;;;;;;;-140.79;100.00;63287.88;4989192;28;20030;-81
2021/07/14 09:20:50;;;;;;;6.57;5.88;;;;;;;-140.79;100.00;63287.88;4974627;28;20109;-82
2021/07/14 09:23:17;;;;;;;7.53;6.03;;;;;;;-140.79;100.00;63287.88;4970001;28;20033;-85
2021/07/14 09:25:47;;;;;;;7.68;6.47;;;;;;;-140.79;100.00;63287.88;4993711;28;20030;-80
2021/07/14 09:28:16;;;;;;;;;;;;;;;-140.79;100.00;63287.88;4989263;28;20046;-78
2021/07/14 09:30:41;;;;;;;7.43;6.15;;;;;;;-140.79;100.00;63287.88;4991265;28;19971;-78
2021/07/14 09:33:08;;;;;;;6.63;6.03;;;;;;;-140.79;100.00;63287.88;4984547;28;20030;-78
2021/07/14 09:35:42;;;;;;;7.22;5.93;;;;;;;-140.79;100.00;63287.88;4991674;28;20041;-80
2021/07/14 09:38:19;;;;;;;6.97;5.80;;;;;;;-140.79;100.00;63287.88;4985468;28;20037;-77
2021/07/14 09:40:50;;;;;;;7.53;5.97;;;;;;;-140.79;100.00;63287.88;4990558;28;20122;-76
2021/07/14 09:43:23;;;;;;;6.90;6.20;;;;;;;-140.79;100.00;63287.88;4985966;28;20034;-76
2021/07/14 09:45:58;;;;;;;7.32;6.55;;;;;;;-140.79;100.00;63287.88;4989995;28;20026;-77
2021/07/14 09:48:28;;;;;;;6.85;5.57;;;;;;;-140.79;100.00;63287.88;4978381;28;20097;-76
2021/07/14 09:51:06;;;;;;;7.45;6.72;;;;;;;-140.79;100.00;63287.88;4973027;28;20022;-76
2021/07/14 09:53:33;;;;;;;7.05;6.00;;;;;;;-140.79;100.00;63287.88;4963382;28;20121;-77
2021/07/14 09:56:00;;;;;;;7.07;5.85;;;;;;;-140.79;100.00;63287.88;4969906;28;20037;-83
2021/07/14 09:58:30;;;;;;;6.90;5.75;;;;;;;-140.79;100.00;63287.88;4986097;28;20034;-78
2021/07/14 10:01:00;;;;;;;6.32;5.40;;;;;;;-140.79;100.00;63287.88;4991270;28;20152;-79
2021/07/14 10:03:28;;;;;;;6.22;5.45;;;;;;;-140.79;100.00;63287.88;4983562;28;20061;-78
2021/07/14 10:06:05;;;;;;;6.30;5.70;;;;;;;-140.79;100.00;63287.88;4990450;28;20496;-82
2021/07/14 10:08:31;;;;;;;6.55;5.85;;;;;;;-140.79;100.00;63287.88;4985928;28;20026;-78
2021/07/14 10:11:27;;;;;;;6.68;5.80;;;;;;;-140.79;100.00;63287.88;4968798;28;20089;-79
2021/07/14 10:14:05;;;;;;;8.07;5.78;;;;;;;-140.79;100.00;63287.88;4969304;28;20046;-81
2021/07/14 10:16:32;;;;;;;6.75;6.10;;;;;;;-140.79;100.00;63287.88;4970263;28;20022;-78
2021/07/14 10:19:08;;;;;;;6.82;6.13;;;;;;;-140.79;100.00;63287.88;4968957;28;20014;-82
2021/07/14 10:21:41;;;;;;;6.18;5.57;;;;;;;-140.79;100.00;63287.88;4972649;28;20057;-80
2021/07/14 10:24:08;;;;;;;6.22;5.63;;;;;;;-140.79;100.00;63287.88;4989722;28;20010;-80
2021/07/14 10:26:34;;;;;;;7.75;5.70;;;;;;;-140.79;100.00;63287.88;4972821;28;20424;-79
2021/07/14 10:29:00;;;;;;;5.93;5.32;;;;;;;-140.79;100.00;63287.88;4971512;28;20027;-78
2021/07/14 10:31:26;;;;;;;6.20;5.60;;;;;;;-140.79;100.00;63287.88;4987553;28;20034;-78
2021/07/14 10:33:52;;;;;;;5.97;5.05;;;;;;;-140.79;100.00;63287.88;4988152;28;20058;-79
2021/07/14 10:36:32;;;;;;;6.22;5.50;;;;;;;-140.79;100.00;63287.88;4989902;28;20031;-78
2021/07/14 10:39:19;;;;;;;6.43;4.93;;;;;;;-140.79;100.00;63287.88;4964483;28;20636;-78
2021/07/14 10:41:44;;;;;;;6.85;5.15;;;;;;;-140.79;100.00;63287.88;4983694;28;20156;-78
2021/07/14 10:44:10;;;;;;;5.78;5.18;;;;;;;-140.79;100.00;63287.88;4991653;28;20033;-79
2021/07/14 10:46:37;;;;;;;6.53;4.75;;;;;;;-140.79;100.00;63287.88;4989388;28;20026;-79
2021/07/14 10:49:04;;;;;;;5.85;4.97;;;;;;;-140.79;100.00;63287.88;4985976;28;20061;-79
2021/07/14 10:51:31;;;;;;;5.75;4.90;;;;;;;-140.79;100.00;63287.88;4971881;28;20041;-79
2021/07/14 10:54:02;;;;;;;6.45;5.10;;;;;;;-140.79;100.00;63287.88;4982841;28;20033;-79
2021/07/14 10:56:36;;;;;;;5.68;4.80;;;;;;;-140.79;100.00;63287.88;4972254;28;20496;-78
2021/07/14 10:59:04;;;;;;;6.13;5.20;;;;;;;-140.79;100.00;63287.88;4967396;28;20050;-78
2021/07/14 11:01:46;;;;;;;5.93;5.28;;;;;;;-140.79;100.00;63287.88;4972733;28;20105;-78
2021/07/14 11:04:26;;;;;;;5.68;5.07;;;;;;;-140.79;100.00;63287.88;4969504;28;20874;-78
2021/07/14 11:07:03;;;;;;;5.40;4.80;;;;;;;-140.79;100.00;63287.88;4972545;28;20116;-79
2021/07/14 11:09:46;;;;;;;6.07;5.20;;;;;;;-140.79;100.00;63287.88;4966418;28;20056;-78
2021/07/14 11:12:14;;;;;;;5.80;4.72;;;;;;;-140.79;100.00;63287.88;4969415;28;20074;-78
2021/07/14 11:14:41;;;;;;;5.63;5.03;;;;;;;-140.79;100.00;63287.88;4966340;28;20101;-79